createdAt,value
2023-05-12T00:00:13.307Z,12.96
2023-05-12T00:01:13.149Z,13.10
2023-05-12T00:02:13.287Z,13.14
2023-05-12T00:03:13.202Z,13.10
2023-05-12T00:04:13.131Z,13.04
2023-05-12T00:05:13.103Z,13.07
2023-05-12T00:06:13.096Z,13.04
2023-05-12T00:07:13.086Z,12.98
2023-05-12T00:08:13.071Z,12.94
2023-05-12T00:09:13.058Z,12.89
2023-05-12T00:10:13.114Z,12.85
2023-05-12T00:11:13.048Z,12.84
2023-05-12T00:12:13.029Z,12.84
2023-05-12T00:13:13.053Z,12.94
2023-05-12T00:14:13.003Z,12.99
2023-05-12T00:15:13.000Z,12.96
2023-05-12T00:16:12.991Z,12.94
2023-05-12T00:17:12.968Z,12.99
2023-05-12T00:18:12.955Z,13.03
2023-05-12T00:19:12.955Z,12.98
2023-05-12T00:20:12.935Z,12.94
2023-05-12T00:21:12.931Z,12.92
2023-05-12T00:22:12.921Z,12.89
2023-05-12T00:23:12.903Z,12.91
2023-05-12T00:24:12.919Z,12.98
2023-05-12T00:25:12.904Z,12.96
2023-05-12T00:26:12.893Z,12.98
2023-05-12T00:27:12.856Z,12.98
2023-05-12T00:28:12.847Z,12.95
2023-05-12T00:29:12.837Z,12.91
2023-05-12T00:30:12.844Z,12.88
2023-05-12T00:31:12.875Z,12.87
2023-05-12T00:32:12.815Z,12.85
2023-05-12T00:33:12.800Z,12.77
2023-05-12T00:34:12.782Z,12.73
2023-05-12T00:35:12.773Z,12.66
2023-05-12T00:36:12.761Z,12.61
2023-05-12T00:37:12.765Z,12.61
2023-05-12T00:38:12.747Z,12.62
2023-05-12T00:39:12.731Z,12.58
2023-05-12T00:40:12.716Z,12.55
2023-05-12T00:41:12.708Z,12.52
2023-05-12T00:42:12.721Z,12.67
2023-05-12T00:43:12.696Z,12.63
2023-05-12T00:44:12.675Z,12.61
2023-05-12T00:45:12.694Z,12.54
2023-05-12T00:46:12.733Z,12.52
2023-05-12T00:47:12.779Z,12.58
2023-05-12T00:48:12.792Z,12.55
2023-05-12T00:49:12.731Z,12.51
2023-05-12T00:50:12.770Z,12.46
2023-05-12T00:51:12.702Z,12.49
2023-05-12T00:52:12.601Z,12.54
2023-05-12T00:53:12.578Z,12.66
2023-05-12T00:54:12.569Z,12.66
2023-05-12T00:55:12.576Z,12.67
2023-05-12T00:56:12.553Z,12.71
2023-05-12T00:57:12.546Z,12.70
2023-05-12T00:58:12.578Z,12.66
2023-05-12T00:59:12.515Z,12.66
2023-05-12T01:00:12.508Z,12.61
2023-05-12T01:01:12.527Z,12.61
2023-05-12T01:02:12.513Z,12.61
2023-05-12T01:03:12.645Z,12.58
2023-05-12T01:04:12.463Z,12.55
2023-05-12T01:05:12.453Z,12.70
2023-05-12T01:06:12.437Z,12.74
2023-05-12T01:07:12.443Z,12.73
2023-05-12T01:08:12.418Z,12.76
2023-05-12T01:09:12.408Z,12.77
2023-05-12T01:10:12.392Z,12.73
2023-05-12T01:11:12.383Z,12.66
2023-05-12T01:12:12.376Z,12.63
2023-05-12T01:13:12.360Z,12.73
2023-05-12T01:14:12.384Z,12.67
2023-05-12T01:15:12.342Z,12.59
2023-05-12T01:16:12.327Z,12.52
2023-05-12T01:17:12.386Z,12.48
2023-05-12T01:18:12.318Z,12.40
2023-05-12T01:19:12.394Z,12.41
2023-05-12T01:20:12.283Z,12.44
2023-05-12T01:21:12.278Z,12.44
2023-05-12T01:22:12.280Z,12.43
2023-05-12T01:23:12.255Z,12.44
2023-05-12T01:24:12.243Z,12.54
2023-05-12T01:25:12.227Z,12.55
2023-05-12T01:26:12.214Z,12.54
2023-05-12T01:27:12.206Z,12.51
2023-05-12T01:28:12.192Z,12.49
2023-05-12T01:29:12.187Z,12.46
2023-05-12T01:30:12.211Z,12.46
2023-05-12T01:31:12.215Z,12.52
2023-05-12T01:32:12.149Z,12.49
2023-05-12T01:33:12.147Z,12.46
2023-05-12T01:34:12.125Z,12.46
2023-05-12T01:35:12.126Z,12.41
2023-05-12T01:36:12.106Z,12.40
2023-05-12T01:37:12.095Z,12.36
2023-05-12T01:38:12.081Z,12.31
2023-05-12T01:39:12.072Z,12.36
2023-05-12T01:40:12.075Z,12.41
2023-05-12T01:41:12.060Z,12.49
2023-05-12T01:42:12.034Z,12.44
2023-05-12T01:43:12.024Z,12.37
2023-05-12T01:44:12.011Z,12.38
2023-05-12T01:45:12.014Z,12.36
2023-05-12T01:46:12.043Z,12.30
2023-05-12T01:47:11.988Z,12.21
2023-05-12T01:48:11.980Z,12.15
2023-05-12T01:49:11.962Z,12.16
2023-05-12T01:50:11.942Z,12.19
2023-05-12T01:51:11.932Z,12.22
2023-05-12T01:52:11.917Z,12.19
2023-05-12T01:53:11.911Z,12.15
2023-05-12T01:54:11.915Z,12.08
2023-05-12T01:55:11.897Z,12.04
2023-05-12T01:56:11.873Z,11.98
2023-05-12T01:57:11.868Z,11.96
2023-05-12T01:58:11.853Z,11.97
2023-05-12T01:59:11.871Z,11.98
2023-05-12T02:00:11.830Z,12.00
2023-05-12T02:01:11.834Z,12.03
2023-05-12T02:02:11.919Z,11.98
2023-05-12T02:03:12.007Z,12.04
2023-05-12T02:04:11.848Z,12.04
2023-05-12T02:05:11.772Z,12.03
2023-05-12T02:06:11.763Z,12.01
2023-05-12T02:07:11.749Z,12.00
2023-05-12T02:08:11.740Z,11.96
2023-05-12T02:09:11.742Z,11.97
2023-05-12T02:10:11.720Z,11.96
2023-05-12T02:11:11.705Z,12.00
2023-05-12T02:12:11.706Z,12.03
2023-05-12T02:13:11.688Z,12.03
2023-05-12T02:14:11.677Z,12.07
2023-05-12T02:15:11.668Z,12.11
2023-05-12T02:16:11.747Z,12.18
2023-05-12T02:17:11.649Z,12.22
2023-05-12T02:18:11.750Z,12.19
2023-05-12T02:19:11.677Z,12.21
2023-05-12T02:20:11.605Z,12.21
2023-05-12T02:21:11.592Z,12.19
2023-05-12T02:22:11.580Z,12.19
2023-05-12T02:23:11.579Z,12.18
2023-05-12T02:24:13.627Z,12.19
2023-05-12T02:25:11.571Z,12.16
2023-05-12T02:26:11.538Z,12.16
2023-05-12T02:27:11.527Z,12.15
2023-05-12T02:28:11.514Z,12.16
2023-05-12T02:29:11.533Z,12.16
2023-05-12T02:30:11.511Z,12.13
2023-05-12T02:31:11.481Z,12.16
2023-05-12T02:32:11.549Z,12.16
2023-05-12T02:33:11.471Z,12.15
2023-05-12T02:34:11.479Z,12.16
2023-05-12T02:35:11.445Z,12.15
2023-05-12T02:36:11.435Z,12.18
2023-05-12T02:37:11.441Z,12.21
2023-05-12T02:38:11.412Z,12.16
2023-05-12T02:39:11.404Z,12.21
2023-05-12T02:40:11.393Z,12.22
2023-05-12T02:41:11.386Z,12.25
2023-05-12T02:42:11.366Z,12.25
2023-05-12T02:43:11.352Z,12.25
2023-05-12T02:44:11.339Z,12.26
2023-05-12T02:45:11.333Z,12.25
2023-05-12T02:46:11.423Z,12.25
2023-05-12T02:47:11.321Z,12.26
2023-05-12T02:48:11.308Z,12.29
2023-05-12T02:49:11.296Z,12.31
2023-05-12T02:50:11.323Z,12.30
2023-05-12T02:51:11.266Z,12.29
2023-05-12T02:52:11.264Z,12.25
2023-05-12T02:53:11.255Z,12.29
2023-05-12T02:54:11.233Z,12.25
2023-05-12T02:55:11.231Z,12.25
2023-05-12T02:56:11.211Z,12.25
2023-05-12T02:57:11.198Z,12.30
2023-05-12T02:58:11.187Z,12.29
2023-05-12T02:59:11.177Z,12.30
2023-05-12T03:00:11.170Z,12.29
2023-05-12T03:01:11.924Z,12.31
2023-05-12T03:02:11.250Z,12.34
2023-05-12T03:03:11.316Z,12.36
2023-05-12T03:04:11.120Z,12.37
2023-05-12T03:05:11.109Z,12.36
2023-05-12T03:06:11.122Z,12.37
2023-05-12T03:07:11.091Z,12.38
2023-05-12T03:08:11.087Z,12.38
2023-05-12T03:09:11.065Z,12.38
2023-05-12T03:10:11.085Z,12.37
2023-05-12T03:11:11.041Z,12.36
2023-05-12T03:12:11.030Z,12.37
2023-05-12T03:13:11.026Z,12.37
2023-05-12T03:14:11.009Z,12.38
2023-05-12T03:15:10.997Z,12.37
2023-05-12T03:16:10.999Z,12.37
2023-05-12T03:17:10.984Z,12.37
2023-05-12T03:18:11.015Z,12.37
2023-05-12T03:19:11.100Z,12.37
2023-05-12T03:20:10.938Z,12.37
2023-05-12T03:21:10.931Z,12.37
2023-05-12T03:22:10.949Z,12.36
2023-05-12T03:23:10.913Z,12.36
2023-05-12T03:24:10.903Z,12.37
2023-05-12T03:25:10.892Z,12.36
2023-05-12T03:26:10.875Z,12.34
2023-05-12T03:27:10.875Z,12.34
2023-05-12T03:28:10.857Z,12.36
2023-05-12T03:29:10.847Z,12.36
2023-05-12T03:30:10.825Z,12.37
2023-05-12T03:31:10.830Z,12.36
2023-05-12T03:32:10.805Z,12.34
2023-05-12T03:33:10.795Z,12.34
2023-05-12T03:34:10.781Z,12.34
2023-05-12T03:35:10.792Z,12.36
2023-05-12T03:36:10.762Z,12.34
2023-05-12T03:37:10.749Z,12.40
2023-05-12T03:38:10.772Z,12.40
2023-05-12T03:39:10.743Z,12.41
2023-05-12T03:40:10.719Z,12.40
2023-05-12T03:41:10.701Z,12.40
2023-05-12T03:42:10.695Z,12.43
2023-05-12T03:43:10.683Z,12.49
2023-05-12T03:44:10.668Z,12.49
2023-05-12T03:45:10.654Z,12.51
2023-05-12T03:46:10.713Z,12.52
2023-05-12T03:47:10.706Z,12.54
2023-05-12T03:48:10.682Z,12.55
2023-05-12T03:49:10.622Z,12.55
2023-05-12T03:50:10.604Z,12.56
2023-05-12T03:51:10.592Z,12.55
2023-05-12T03:52:10.597Z,12.54
2023-05-12T03:53:10.571Z,12.54
2023-05-12T03:54:10.581Z,12.54
2023-05-12T03:55:10.612Z,12.54
2023-05-12T03:56:10.533Z,12.54
2023-05-12T03:57:10.551Z,12.52
2023-05-12T03:58:10.510Z,12.54
2023-05-12T03:59:10.496Z,12.54
2023-05-12T04:00:10.501Z,12.54
2023-05-12T04:01:10.502Z,12.54
2023-05-12T04:02:10.532Z,12.54
2023-05-12T04:03:10.571Z,12.52
2023-05-12T04:04:10.535Z,12.49
2023-05-12T04:05:10.436Z,12.49
2023-05-12T04:06:10.421Z,12.49
2023-05-12T04:07:10.409Z,12.49
2023-05-12T04:08:10.402Z,12.52
2023-05-12T04:09:10.378Z,12.54
2023-05-12T04:10:10.502Z,12.58
2023-05-12T04:11:10.365Z,12.58
2023-05-12T04:12:10.356Z,12.58
2023-05-12T04:13:10.357Z,12.56
2023-05-12T04:14:10.335Z,12.54
2023-05-12T04:15:10.323Z,12.54
2023-05-12T04:16:10.340Z,12.56
2023-05-12T04:17:10.298Z,12.55
2023-05-12T04:18:10.302Z,12.58
2023-05-12T04:19:10.333Z,12.59
2023-05-12T04:20:10.257Z,12.63
2023-05-12T04:21:10.944Z,12.63
2023-05-12T04:22:10.233Z,12.67
2023-05-12T04:23:10.225Z,12.69
2023-05-12T04:24:10.222Z,12.70
2023-05-12T04:25:10.206Z,12.71
2023-05-12T04:26:10.216Z,12.71
2023-05-12T04:27:10.194Z,12.70
2023-05-12T04:28:12.050Z,12.69
2023-05-12T04:29:10.164Z,12.74
2023-05-12T04:30:10.148Z,12.71
2023-05-12T04:31:10.134Z,12.74
2023-05-12T04:32:10.235Z,12.74
2023-05-12T04:33:10.316Z,12.74
2023-05-12T04:34:10.098Z,12.74
2023-05-12T04:35:10.085Z,12.74
2023-05-12T04:36:10.078Z,12.73
2023-05-12T04:37:10.069Z,12.73
2023-05-12T04:38:10.072Z,12.73
2023-05-12T04:39:10.057Z,12.74
2023-05-12T04:40:10.029Z,12.77
2023-05-12T04:41:10.017Z,12.76
2023-05-12T04:42:10.101Z,12.76
2023-05-12T04:44:00.079Z,12.76
2023-05-12T04:44:11.015Z,12.74
2023-05-12T04:45:09.970Z,12.77
2023-05-12T04:46:10.010Z,12.79
2023-05-12T04:47:09.979Z,12.77
2023-05-12T04:48:09.938Z,12.79
2023-05-12T04:49:09.926Z,12.80
2023-05-12T04:50:09.915Z,12.81
2023-05-12T04:51:09.908Z,12.84
2023-05-12T04:52:09.894Z,12.84
2023-05-12T04:53:11.394Z,12.85
2023-05-12T04:54:09.878Z,12.88
2023-05-12T04:55:09.860Z,12.91
2023-05-12T04:56:09.847Z,12.92
2023-05-12T04:57:09.838Z,12.92
2023-05-12T04:58:09.857Z,12.94
2023-05-12T04:59:09.837Z,12.95
2023-05-12T05:00:09.799Z,12.98
2023-05-12T05:01:09.835Z,12.99
2023-05-12T05:02:09.794Z,13.01
2023-05-12T05:03:09.865Z,13.07
2023-05-12T05:04:09.861Z,13.07
2023-05-12T05:05:09.754Z,13.09
2023-05-12T05:06:09.739Z,13.10
2023-05-12T05:07:09.729Z,13.10
2023-05-12T05:08:09.713Z,13.14
2023-05-12T05:09:09.701Z,13.14
2023-05-12T05:10:09.697Z,13.16
2023-05-12T05:11:09.678Z,13.17
2023-05-12T05:12:09.668Z,13.16
2023-05-12T05:13:09.661Z,13.21
2023-05-12T05:14:09.681Z,13.22
2023-05-12T05:15:09.647Z,13.28
2023-05-12T05:16:09.732Z,13.28
2023-05-12T05:17:09.610Z,13.29
2023-05-12T05:18:09.661Z,13.29
2023-05-12T05:19:20.109Z,13.25
2023-05-12T05:20:12.379Z,13.27
2023-05-12T05:21:09.671Z,13.27
2023-05-12T05:22:09.557Z,13.29
2023-05-12T05:23:09.549Z,13.31
2023-05-12T05:24:09.537Z,13.32
2023-05-12T05:25:09.526Z,13.35
2023-05-12T05:26:09.518Z,13.36
2023-05-12T05:27:09.501Z,13.32
2023-05-12T05:28:09.488Z,13.31
2023-05-12T05:29:09.478Z,13.36
2023-05-12T05:30:09.486Z,13.32
2023-05-12T05:31:09.480Z,13.32
2023-05-12T05:32:09.464Z,13.36
2023-05-12T05:33:09.542Z,13.36
2023-05-12T05:34:09.476Z,13.35
2023-05-12T05:35:09.422Z,13.39
2023-05-12T05:36:09.424Z,13.43
2023-05-12T05:37:09.385Z,13.46
2023-05-12T05:38:09.387Z,13.51
2023-05-12T05:39:09.365Z,13.55
2023-05-12T05:40:09.359Z,13.61
2023-05-12T05:41:09.341Z,13.63
2023-05-12T05:42:09.333Z,13.65
2023-05-12T05:43:09.321Z,13.73
2023-05-12T05:44:09.346Z,13.80
2023-05-12T05:45:09.307Z,13.84
2023-05-12T05:46:09.443Z,13.87
2023-05-12T05:47:09.325Z,13.84
2023-05-12T05:48:09.314Z,13.80
2023-05-12T05:49:09.252Z,13.84
2023-05-12T05:50:09.242Z,13.87
2023-05-12T05:51:09.227Z,13.91
2023-05-12T05:52:09.223Z,13.93
2023-05-12T05:53:09.203Z,13.93
2023-05-12T05:54:09.216Z,14.01
2023-05-12T05:55:09.184Z,13.90
2023-05-12T05:56:09.168Z,13.96
2023-05-12T05:57:09.164Z,13.93
2023-05-12T05:58:09.150Z,13.96
2023-05-12T05:59:09.137Z,14.02
2023-05-12T06:00:09.147Z,14.05
2023-05-12T06:01:09.113Z,14.12
2023-05-12T06:02:09.153Z,14.02
2023-05-12T06:03:09.178Z,14.11
2023-05-12T06:04:09.137Z,14.06
2023-05-12T06:05:09.073Z,14.13
2023-05-12T06:06:09.068Z,14.30
2023-05-12T06:07:09.056Z,14.42
2023-05-12T06:08:09.038Z,14.49
2023-05-12T06:09:09.026Z,14.39
2023-05-12T06:10:09.025Z,14.45
2023-05-12T06:11:09.024Z,14.45
2023-05-12T06:12:08.991Z,14.53
2023-05-12T06:13:08.981Z,14.53
2023-05-12T06:14:44.566Z,14.53
2023-05-12T06:15:44.462Z,14.41
2023-05-12T06:16:44.561Z,14.39
2023-05-12T06:17:44.509Z,14.46
2023-05-12T06:18:44.496Z,14.53
2023-05-12T06:19:44.433Z,14.56
2023-05-12T06:20:44.401Z,14.64
2023-05-12T06:21:44.388Z,14.57
2023-05-12T06:22:44.421Z,14.61
2023-05-12T06:23:44.369Z,14.66
2023-05-12T06:24:44.356Z,14.67
2023-05-12T06:25:44.342Z,14.78
2023-05-12T06:26:44.334Z,14.71
2023-05-12T06:27:44.321Z,14.71
2023-05-12T06:28:44.310Z,14.74
2023-05-12T06:29:44.309Z,14.75
2023-05-12T06:30:44.334Z,14.72
2023-05-12T06:31:44.302Z,14.74
2023-05-12T06:32:44.316Z,14.79
2023-05-12T06:33:44.306Z,14.78
2023-05-12T06:34:44.258Z,14.95
2023-05-12T06:35:44.233Z,14.97
2023-05-12T06:36:44.228Z,15.11
2023-05-12T06:37:44.215Z,15.13
2023-05-12T06:38:44.206Z,15.19
2023-05-12T06:39:44.204Z,15.28
2023-05-12T06:40:44.191Z,15.48
2023-05-12T06:41:44.189Z,15.52
2023-05-12T06:42:44.174Z,15.62
2023-05-12T06:43:44.151Z,15.73
2023-05-12T06:44:44.142Z,15.81
2023-05-12T06:45:44.131Z,15.76
2023-05-12T06:46:44.172Z,15.89
2023-05-12T06:47:44.118Z,15.89
2023-05-12T06:48:44.099Z,15.96
2023-05-12T06:49:44.139Z,15.95
2023-05-12T06:50:44.078Z,16.10
2023-05-12T06:51:44.063Z,16.22
2023-05-12T06:52:44.065Z,16.29
2023-05-12T06:53:44.088Z,16.30
2023-05-12T06:54:44.032Z,16.44
2023-05-12T06:55:44.041Z,16.45
2023-05-12T06:56:44.014Z,16.48
2023-05-12T06:57:43.999Z,16.66
2023-05-12T06:58:43.992Z,17.10
2023-05-12T06:59:43.975Z,17.43
2023-05-12T07:00:43.965Z,18.04
2023-05-12T07:01:43.994Z,18.19
2023-05-12T07:02:43.956Z,18.44
2023-05-12T07:03:44.001Z,18.76
2023-05-12T07:04:43.936Z,18.56
2023-05-12T07:05:44.128Z,18.72
2023-05-12T07:06:43.903Z,18.44
2023-05-12T07:07:43.894Z,19.07
2023-05-12T07:08:43.879Z,19.47
2023-05-12T07:09:43.867Z,19.67
2023-05-12T07:10:43.861Z,19.70
2023-05-12T07:11:43.845Z,19.40
2023-05-12T07:12:43.839Z,19.17
2023-05-12T07:13:43.823Z,19.27
2023-05-12T07:14:43.811Z,19.35
2023-05-12T07:15:43.878Z,19.23
2023-05-12T07:16:43.800Z,19.02
2023-05-12T07:17:43.843Z,18.82
2023-05-12T07:18:43.790Z,18.82
2023-05-12T07:19:43.773Z,18.79
2023-05-12T07:20:43.744Z,18.72
2023-05-12T07:21:43.797Z,18.84
2023-05-12T07:22:43.722Z,18.86
2023-05-12T07:23:43.713Z,18.74
2023-05-12T07:24:43.706Z,18.93
2023-05-12T07:25:43.727Z,19.15
2023-05-12T07:26:43.709Z,19.17
2023-05-12T07:27:43.688Z,19.09
2023-05-12T07:28:43.661Z,19.23
2023-05-12T07:29:43.648Z,19.34
2023-05-12T07:30:43.653Z,19.39
2023-05-12T07:31:43.661Z,19.50
2023-05-12T07:32:43.631Z,19.71
2023-05-12T07:33:43.604Z,19.85
2023-05-12T07:34:43.598Z,19.83
2023-05-12T07:35:43.582Z,19.75
2023-05-12T07:36:43.569Z,19.64
2023-05-12T07:37:43.612Z,19.71
2023-05-12T07:38:43.556Z,19.62
2023-05-12T07:39:43.545Z,19.53
2023-05-12T07:40:43.526Z,19.55
2023-05-12T07:41:43.523Z,19.42
2023-05-12T07:42:43.525Z,19.42
2023-05-12T07:43:43.491Z,19.27
2023-05-12T07:44:43.483Z,19.27
2023-05-12T07:45:43.493Z,19.52
2023-05-12T07:46:43.497Z,19.82
2023-05-12T07:47:43.486Z,19.87
2023-05-12T07:48:43.445Z,20.02
2023-05-12T07:49:43.446Z,20.13
2023-05-12T07:50:43.435Z,19.83
2023-05-12T07:51:43.408Z,20.02
2023-05-12T07:52:43.401Z,20.40
2023-05-12T07:53:43.429Z,20.50
2023-05-12T07:54:43.373Z,20.63
2023-05-12T07:55:43.376Z,20.63
2023-05-12T07:56:43.421Z,20.53
2023-05-12T07:57:43.341Z,20.46
2023-05-12T07:58:44.134Z,20.27
2023-05-12T07:59:43.318Z,20.27
2023-05-12T08:00:43.312Z,20.46
2023-05-12T08:01:43.355Z,20.54
2023-05-12T08:02:43.432Z,20.69
2023-05-12T08:03:43.381Z,20.78
2023-05-12T08:04:44.500Z,20.90
2023-05-12T08:05:43.256Z,20.96
2023-05-12T08:06:43.251Z,21.00
2023-05-12T08:07:43.240Z,20.88
2023-05-12T08:08:43.228Z,20.93
2023-05-12T08:09:43.243Z,20.91
2023-05-12T08:10:43.207Z,21.00
2023-05-12T08:11:46.122Z,21.38
2023-05-12T08:12:43.192Z,21.66
2023-05-12T08:13:43.169Z,21.94
2023-05-12T08:14:43.182Z,21.99
2023-05-12T08:15:43.146Z,22.09
2023-05-12T08:16:43.160Z,22.12
2023-05-12T08:17:43.182Z,22.12
2023-05-12T08:18:43.173Z,21.73
2023-05-12T08:19:43.124Z,21.63
2023-05-12T08:20:43.109Z,21.52
2023-05-12T08:21:43.086Z,21.82
2023-05-12T08:22:43.069Z,22.35
2023-05-12T08:23:43.073Z,22.88
2023-05-12T08:24:43.053Z,23.18
2023-05-12T08:25:43.125Z,23.06
2023-05-12T08:26:43.032Z,22.64
2023-05-12T08:27:43.025Z,22.20
2023-05-12T08:28:43.012Z,21.93
2023-05-12T08:29:42.998Z,22.20
2023-05-12T08:30:43.015Z,22.14
2023-05-12T08:31:43.020Z,21.93
2023-05-12T08:32:43.246Z,21.98
2023-05-12T08:33:42.958Z,22.27
2023-05-12T08:34:42.944Z,22.67
2023-05-12T08:35:42.929Z,23.00
2023-05-12T08:36:42.920Z,23.18
2023-05-12T08:37:42.908Z,23.53
2023-05-12T08:38:42.901Z,23.09
2023-05-12T08:39:42.898Z,23.31
2023-05-12T08:40:42.884Z,23.92
2023-05-12T08:41:42.948Z,23.67
2023-05-12T08:42:42.862Z,24.33
2023-05-12T08:43:42.868Z,24.36
2023-05-12T08:44:42.835Z,24.36
2023-05-12T08:45:42.821Z,24.42
2023-05-12T08:46:42.872Z,24.33
2023-05-12T08:47:42.873Z,23.92
2023-05-12T08:48:42.794Z,23.82
2023-05-12T08:49:42.789Z,23.89
2023-05-12T08:50:42.785Z,23.90
2023-05-12T08:51:42.773Z,24.04
2023-05-12T08:52:42.753Z,24.14
2023-05-12T08:53:42.745Z,24.12
2023-05-12T08:54:55.072Z,24.15
2023-05-12T08:55:53.310Z,24.02
2023-05-12T08:57:42.847Z,24.29
2023-05-12T08:58:42.791Z,24.93
2023-05-12T08:59:42.689Z,24.82
2023-05-12T09:00:42.700Z,25.04
2023-05-12T09:01:42.726Z,25.01
2023-05-12T09:02:52.766Z,24.89
2023-05-12T09:03:42.694Z,24.89
2023-05-12T09:04:42.648Z,24.90
2023-05-12T09:05:43.168Z,24.90
2023-05-12T09:06:42.610Z,24.66
2023-05-12T09:07:42.647Z,24.68
2023-05-12T09:08:42.613Z,24.66
2023-05-12T09:09:42.648Z,24.93
2023-05-12T09:10:42.568Z,25.23
2023-05-12T09:11:42.830Z,24.97
2023-05-12T09:12:42.903Z,25.02
2023-05-12T09:13:42.686Z,25.02
2023-05-12T09:14:42.843Z,24.97
2023-05-12T09:15:42.627Z,24.61
2023-05-12T09:16:42.566Z,24.68
2023-05-12T09:17:42.538Z,24.80
2023-05-12T09:18:42.697Z,24.90
2023-05-12T09:20:30.503Z,25.14
2023-05-12T09:21:17.969Z,25.36
2023-05-12T09:22:17.966Z,26.06
2023-05-12T09:23:17.945Z,26.66
2023-05-12T09:24:17.938Z,27.05
2023-05-12T09:25:18.033Z,27.03
2023-05-12T09:26:17.918Z,27.06
2023-05-12T09:27:17.911Z,26.78
2023-05-12T09:28:17.919Z,26.56
2023-05-12T09:29:29.995Z,26.51
2023-05-12T09:30:19.229Z,26.68
2023-05-12T09:31:17.926Z,27.12
2023-05-12T09:32:18.061Z,27.40
2023-05-12T09:33:17.842Z,27.43
2023-05-12T09:34:17.854Z,27.42
2023-05-12T09:35:18.018Z,27.71
2023-05-12T09:36:17.819Z,27.39
2023-05-12T09:37:17.821Z,27.45
2023-05-12T09:38:17.801Z,27.62
2023-05-12T09:39:17.781Z,27.46
2023-05-12T09:40:17.789Z,26.94
2023-05-12T09:41:17.766Z,26.87
2023-05-12T09:42:17.760Z,26.90
2023-05-12T09:43:17.749Z,26.69
2023-05-12T09:44:17.749Z,26.79
2023-05-12T09:45:18.148Z,26.83
2023-05-12T09:46:17.862Z,26.86
2023-05-12T09:47:17.702Z,27.53
2023-05-12T09:48:17.691Z,27.87
2023-05-12T09:49:17.681Z,28.09
2023-05-12T09:50:17.684Z,28.57
2023-05-12T09:51:17.666Z,28.45
2023-05-12T09:52:17.656Z,28.38
2023-05-12T09:53:17.725Z,28.03
2023-05-12T09:54:17.626Z,27.11
2023-05-12T09:55:17.727Z,27.09
2023-05-12T09:56:17.610Z,26.91
2023-05-12T09:57:17.655Z,26.39
2023-05-12T09:58:17.640Z,26.27
2023-05-12T09:59:17.574Z,26.03
2023-05-12T10:00:34.648Z,25.98
2023-05-12T10:01:22.650Z,26.04
2023-05-12T10:02:17.566Z,26.51
2023-05-12T10:03:17.627Z,26.73
2023-05-12T10:04:17.555Z,27.13
2023-05-12T10:05:17.546Z,27.63
2023-05-12T10:06:17.499Z,27.84
2023-05-12T10:07:17.507Z,27.81
2023-05-12T10:08:17.478Z,28.40
2023-05-12T10:09:17.517Z,28.55
2023-05-12T10:10:17.496Z,28.61
2023-05-12T10:11:17.451Z,28.55
2023-05-12T10:12:17.521Z,28.46
2023-05-12T10:13:17.428Z,28.64
2023-05-12T10:14:17.421Z,29.23
2023-05-12T10:15:17.492Z,29.55
2023-05-12T10:16:17.413Z,29.64
2023-05-12T10:17:17.517Z,29.26
2023-05-12T10:18:17.466Z,29.37
2023-05-12T10:19:17.387Z,29.79
2023-05-12T10:20:17.494Z,30.07
2023-05-12T10:21:17.358Z,30.21
2023-05-12T10:22:17.362Z,29.29
2023-05-12T10:23:17.333Z,28.88
2023-05-12T10:24:17.378Z,29.02
2023-05-12T10:25:17.485Z,29.35
2023-05-12T10:26:17.523Z,29.42
2023-05-12T10:27:17.386Z,29.33
2023-05-12T10:28:17.287Z,29.17
2023-05-12T10:29:17.280Z,29.58
2023-05-12T10:30:17.281Z,29.74
2023-05-12T10:31:17.286Z,30.01
2023-05-12T10:32:17.260Z,30.32
2023-05-12T10:33:18.100Z,29.94
2023-05-12T10:34:17.236Z,29.36
2023-05-12T10:35:17.233Z,29.23
2023-05-12T10:36:17.206Z,29.35
2023-05-12T10:37:17.189Z,29.48
2023-05-12T10:38:17.220Z,29.64
2023-05-12T10:39:17.193Z,29.55
2023-05-12T10:40:17.198Z,29.71
2023-05-12T10:41:17.166Z,30.00
2023-05-12T10:42:17.139Z,30.16
2023-05-12T10:43:17.936Z,30.21
2023-05-12T10:44:17.128Z,29.91
2023-05-12T10:45:17.181Z,30.19
2023-05-12T10:46:17.156Z,30.59
2023-05-12T10:47:17.100Z,30.57
2023-05-12T10:48:17.082Z,30.70
2023-05-12T10:49:17.094Z,30.94
2023-05-12T10:50:17.061Z,30.18
2023-05-12T10:51:17.060Z,29.81
2023-05-12T10:52:17.047Z,29.35
2023-05-12T10:53:17.032Z,29.11
2023-05-12T10:54:17.026Z,28.85
2023-05-12T10:55:17.099Z,28.55
2023-05-12T10:56:17.274Z,28.38
2023-05-12T10:57:18.940Z,28.54
2023-05-12T10:58:17.255Z,28.76
2023-05-12T10:59:17.342Z,28.64
2023-05-12T11:00:17.371Z,28.80
2023-05-12T11:01:17.490Z,28.83
2023-05-12T11:02:17.373Z,29.03
2023-05-12T11:03:17.436Z,29.26
2023-05-12T11:04:17.196Z,28.95
2023-05-12T11:05:17.485Z,29.11
2023-05-12T11:06:17.255Z,28.64
2023-05-12T11:07:17.226Z,28.67
2023-05-12T11:08:17.772Z,28.58
2023-05-12T11:09:17.649Z,28.50
2023-05-12T11:10:17.673Z,28.69
2023-05-12T11:11:17.647Z,28.73
2023-05-12T11:12:16.857Z,29.45
2023-05-12T11:13:16.845Z,29.05
2023-05-12T11:14:16.820Z,28.50
2023-05-12T11:15:18.077Z,28.73
2023-05-12T11:16:16.813Z,28.91
2023-05-12T11:17:16.789Z,28.62
2023-05-12T11:18:16.950Z,28.54
2023-05-12T11:19:16.774Z,29.27
2023-05-12T11:20:16.762Z,29.47
2023-05-12T11:21:16.844Z,29.18
2023-05-12T11:22:16.785Z,29.36
2023-05-12T11:23:16.746Z,29.71
2023-05-12T11:24:16.729Z,29.94
2023-05-12T11:25:16.765Z,29.64
2023-05-12T11:26:16.707Z,29.81
2023-05-12T11:27:16.691Z,29.95
2023-05-12T11:28:16.680Z,29.88
2023-05-12T11:29:16.673Z,30.01
2023-05-12T11:30:16.660Z,29.99
2023-05-12T11:31:16.787Z,29.82
2023-05-12T11:32:16.661Z,30.26
2023-05-12T11:33:16.708Z,29.84
2023-05-12T11:34:16.639Z,30.04
2023-05-12T11:35:16.650Z,30.38
2023-05-12T11:36:16.601Z,30.70
2023-05-12T11:37:16.617Z,31.12
2023-05-12T11:38:16.587Z,31.47
2023-05-12T11:39:16.681Z,31.53
2023-05-12T11:40:16.559Z,31.45
2023-05-12T11:41:16.553Z,31.30
2023-05-12T11:42:19.563Z,31.18
2023-05-12T11:43:16.532Z,31.15
2023-05-12T11:44:16.532Z,30.15
2023-05-12T11:45:16.519Z,29.03
2023-05-12T11:46:16.522Z,28.43
2023-05-12T11:47:16.712Z,27.59
2023-05-12T11:48:16.683Z,27.53
2023-05-12T11:49:16.557Z,27.55
2023-05-12T11:50:16.468Z,27.83
2023-05-12T11:51:16.499Z,28.55
2023-05-12T11:52:16.499Z,28.87
2023-05-12T11:53:16.509Z,28.55
2023-05-12T11:54:16.428Z,28.18
2023-05-12T11:55:16.435Z,28.01
2023-05-12T11:56:16.422Z,27.84
2023-05-12T11:57:16.437Z,27.76
2023-05-12T11:58:16.393Z,27.72
2023-05-12T11:59:16.460Z,27.86
2023-05-12T12:00:16.398Z,27.63
2023-05-12T12:01:16.384Z,27.71
2023-05-12T12:02:16.434Z,28.35
2023-05-12T12:03:16.644Z,29.17
2023-05-12T12:04:16.402Z,29.25
2023-05-12T12:05:16.320Z,29.41
2023-05-12T12:06:16.314Z,29.36
2023-05-12T12:07:16.300Z,28.69
2023-05-12T12:08:16.315Z,28.62
2023-05-12T12:09:16.423Z,29.44
2023-05-12T12:10:16.297Z,30.23
2023-05-12T12:11:16.302Z,30.59
2023-05-12T12:12:16.271Z,30.76
2023-05-12T12:13:16.232Z,29.78
2023-05-12T12:14:16.233Z,29.17
2023-05-12T12:15:16.745Z,29.17
2023-05-12T12:16:16.454Z,28.98
2023-05-12T12:17:16.309Z,28.25
2023-05-12T12:18:16.189Z,28.13
2023-05-12T12:19:16.221Z,28.09
2023-05-12T12:20:16.306Z,27.96
2023-05-12T12:21:18.327Z,28.28
2023-05-12T12:22:16.395Z,28.88
2023-05-12T13:48:33.605Z,26.31
2023-05-12T13:49:33.486Z,26.38
2023-05-12T13:50:33.911Z,26.34
2023-05-12T13:51:33.469Z,26.44
2023-05-12T13:52:33.470Z,26.56
2023-05-12T13:53:33.436Z,26.68
2023-05-12T13:54:33.421Z,26.76
2023-05-12T13:55:33.411Z,26.83
2023-05-12T13:56:33.403Z,26.83
2023-05-12T13:57:33.391Z,26.93
2023-05-12T13:58:33.378Z,26.54
2023-05-12T13:59:33.387Z,26.47
2023-05-12T14:00:33.364Z,26.53
2023-05-12T14:01:33.408Z,27.06
2023-05-12T14:02:33.423Z,27.15
2023-05-12T14:03:33.328Z,27.24
2023-05-12T14:04:33.393Z,27.87
2023-05-12T14:05:33.383Z,28.62
2023-05-12T14:06:33.298Z,29.26
2023-05-12T14:07:33.281Z,29.21
2023-05-12T14:08:33.283Z,29.14
2023-05-12T14:09:33.261Z,-39.99
2023-05-12T14:10:33.252Z,29.14
2023-05-12T14:11:33.240Z,29.42
2023-05-12T14:12:33.235Z,29.70
2023-05-12T14:13:33.259Z,29.84
2023-05-12T14:14:33.273Z,30.10
2023-05-12T14:15:44.672Z,30.46
2023-05-12T14:16:34.283Z,30.67
2023-05-12T14:17:33.204Z,29.74
2023-05-12T14:18:33.195Z,28.95
2023-05-12T14:19:33.161Z,28.58